sensor_id;sensor_type;location;lat;lon;timestamp;P1;durP1;ratioP1;P2;durP2;ratioP2
25381;SDS011;16307;42.896;20.874;2023-04-12T15:19:01;4.22;;;1.50;;
25381;SDS011;16307;42.896;20.874;2023-04-12T15:21:58;5.30;;;2.05;;
25381;SDS011;16307;42.896;20.874;2023-04-12T15:24:45;13.65;;;1.70;;
25381;SDS011;16307;42.896;20.874;2023-04-12T15:27:31;3.03;;;1.10;;
25381;SDS011;16307;42.896;20.874;2023-04-12T15:30:21;3.70;;;1.50;;
25381;SDS011;16307;42.896;20.874;2023-04-12T15:33:07;1.70;;;1.20;;
25381;SDS011;16307;42.896;20.874;2023-04-12T15:35:54;3.33;;;1.35;;
25381;SDS011;16307;42.896;20.874;2023-04-12T15:38:42;2.97;;;1.30;;
25381;SDS011;16307;42.896;20.874;2023-04-12T15:41:31;5.15;;;1.63;;
25381;SDS011;16307;42.896;20.874;2023-04-12T15:44:19;4.30;;;1.30;;
25381;SDS011;16307;42.896;20.874;2023-04-12T15:47:07;3.10;;;1.17;;
25381;SDS011;16307;42.896;20.874;2023-04-12T15:49:56;2.97;;;1.20;;
25381;SDS011;16307;42.896;20.874;2023-04-12T15:52:43;7.00;;;4.25;;
25381;SDS011;16307;42.896;20.874;2023-04-12T15:55:30;14.98;;;9.30;;
25381;SDS011;16307;42.896;20.874;2023-04-12T15:58:16;19.38;;;11.80;;
25381;SDS011;16307;42.896;20.874;2023-04-12T16:01:02;19.90;;;13.23;;
25381;SDS011;16307;42.896;20.874;2023-04-12T16:03:49;23.23;;;13.07;;
25381;SDS011;16307;42.896;20.874;2023-04-12T16:06:38;5.82;;;3.17;;
25381;SDS011;16307;42.896;20.874;2023-04-12T16:09:25;11.77;;;7.35;;
25381;SDS011;16307;42.896;20.874;2023-04-12T16:12:11;7.32;;;2.88;;
25381;SDS011;16307;42.896;20.874;2023-04-12T16:14:57;5.38;;;2.70;;
25381;SDS011;16307;42.896;20.874;2023-04-12T16:17:44;3.90;;;2.10;;
25381;SDS011;16307;42.896;20.874;2023-04-12T16:20:33;4.20;;;2.20;;
25381;SDS011;16307;42.896;20.874;2023-04-12T16:23:19;3.33;;;2.00;;
25381;SDS011;16307;42.896;20.874;2023-04-12T16:26:06;6.75;;;2.30;;
25381;SDS011;16307;42.896;20.874;2023-04-12T16:28:53;5.50;;;1.40;;
25381;SDS011;16307;42.896;20.874;2023-04-12T16:31:40;7.78;;;3.75;;
25381;SDS011;16307;42.896;20.874;2023-04-12T16:34:30;4.07;;;1.70;;
25381;SDS011;16307;42.896;20.874;2023-04-12T16:37:16;8.55;;;2.10;;
25381;SDS011;16307;42.896;20.874;2023-04-12T16:40:02;2.83;;;1.70;;
25381;SDS011;16307;42.896;20.874;2023-04-12T16:42:59;8.35;;;3.85;;
25381;SDS011;16307;42.896;20.874;2023-04-12T16:45:45;25.63;;;4.60;;
25381;SDS011;16307;42.896;20.874;2023-04-12T16:48:35;8.57;;;3.22;;
25381;SDS011;16307;42.896;20.874;2023-04-12T16:51:29;7.65;;;2.83;;
25381;SDS011;16307;42.896;20.874;2023-04-12T16:54:22;6.35;;;2.28;;
25381;SDS011;16307;42.896;20.874;2023-04-12T16:57:08;3.65;;;1.80;;
25381;SDS011;16307;42.896;20.874;2023-04-12T16:59:58;12.82;;;2.30;;
25381;SDS011;16307;42.896;20.874;2023-04-12T17:02:45;6.57;;;1.90;;
25381;SDS011;16307;42.896;20.874;2023-04-12T17:05:33;11.70;;;2.47;;
25381;SDS011;16307;42.896;20.874;2023-04-12T17:08:21;8.35;;;3.80;;
25381;SDS011;16307;42.896;20.874;2023-04-12T17:11:07;6.07;;;2.95;;
25381;SDS011;16307;42.896;20.874;2023-04-12T17:13:53;8.20;;;3.95;;
25381;SDS011;16307;42.896;20.874;2023-04-12T17:16:40;14.63;;;4.65;;
25381;SDS011;16307;42.896;20.874;2023-04-12T17:19:33;11.98;;;4.88;;
25381;SDS011;16307;42.896;20.874;2023-04-12T17:22:19;12.70;;;4.05;;
25381;SDS011;16307;42.896;20.874;2023-04-12T17:25:06;7.68;;;3.90;;
25381;SDS011;16307;42.896;20.874;2023-04-12T17:27:54;14.38;;;4.72;;
25381;SDS011;16307;42.896;20.874;2023-04-12T17:30:41;7.32;;;3.83;;
25381;SDS011;16307;42.896;20.874;2023-04-12T17:33:27;6.88;;;3.42;;
25381;SDS011;16307;42.896;20.874;2023-04-12T17:36:13;5.88;;;3.15;;
25381;SDS011;16307;42.896;20.874;2023-04-12T17:39:00;7.43;;;3.90;;
25381;SDS011;16307;42.896;20.874;2023-04-12T17:41:57;7.60;;;4.53;;
25381;SDS011;16307;42.896;20.874;2023-04-12T17:44:48;16.38;;;5.53;;
25381;SDS011;16307;42.896;20.874;2023-04-12T17:47:39;18.05;;;7.00;;
25381;SDS011;16307;42.896;20.874;2023-04-12T17:50:31;11.95;;;4.43;;
25381;SDS011;16307;42.896;20.874;2023-04-12T17:53:25;11.27;;;4.20;;
25381;SDS011;16307;42.896;20.874;2023-04-12T17:56:20;11.50;;;4.13;;
25381;SDS011;16307;42.896;20.874;2023-04-12T18:02:39;10.48;;;5.85;;
25381;SDS011;16307;42.896;20.874;2023-04-12T18:05:49;8.02;;;4.43;;
25381;SDS011;16307;42.896;20.874;2023-04-12T18:08:40;7.22;;;3.60;;
25381;SDS011;16307;42.896;20.874;2023-04-12T18:11:50;16.33;;;6.03;;
25381;SDS011;16307;42.896;20.874;2023-04-12T18:14:36;8.98;;;4.45;;
25381;SDS011;16307;42.896;20.874;2023-04-12T18:17:38;11.50;;;4.13;;
25381;SDS011;16307;42.896;20.874;2023-04-12T18:20:36;8.85;;;5.03;;
25381;SDS011;16307;42.896;20.874;2023-04-12T18:23:22;12.73;;;6.85;;
25381;SDS011;16307;42.896;20.874;2023-04-12T18:26:08;19.70;;;9.77;;
25381;SDS011;16307;42.896;20.874;2023-04-12T18:28:58;8.02;;;3.78;;
25381;SDS011;16307;42.896;20.874;2023-04-12T18:31:46;7.03;;;3.88;;
25381;SDS011;16307;42.896;20.874;2023-04-12T18:34:36;8.82;;;4.35;;
25381;SDS011;16307;42.896;20.874;2023-04-12T18:37:23;14.73;;;6.88;;
25381;SDS011;16307;42.896;20.874;2023-04-12T18:40:34;12.00;;;4.03;;
25381;SDS011;16307;42.896;20.874;2023-04-12T18:43:26;9.27;;;3.70;;
25381;SDS011;16307;42.896;20.874;2023-04-12T18:46:15;6.45;;;3.63;;
25381;SDS011;16307;42.896;20.874;2023-04-12T18:49:03;12.02;;;3.60;;
25381;SDS011;16307;42.896;20.874;2023-04-12T18:51:55;8.15;;;3.90;;
25381;SDS011;16307;42.896;20.874;2023-04-12T18:54:43;9.43;;;3.70;;
25381;SDS011;16307;42.896;20.874;2023-04-12T18:57:30;8.00;;;4.32;;
25381;SDS011;16307;42.896;20.874;2023-04-12T19:00:17;14.23;;;5.63;;
25381;SDS011;16307;42.896;20.874;2023-04-12T19:03:49;14.63;;;5.20;;
25381;SDS011;16307;42.896;20.874;2023-04-12T19:06:35;22.30;;;7.97;;
25381;SDS011;16307;42.896;20.874;2023-04-12T19:09:31;25.95;;;10.70;;
25381;SDS011;16307;42.896;20.874;2023-04-12T19:12:45;15.95;;;7.13;;
25381;SDS011;16307;42.896;20.874;2023-04-12T19:15:34;11.48;;;6.05;;
25381;SDS011;16307;42.896;20.874;2023-04-12T19:18:21;25.92;;;13.40;;
25381;SDS011;16307;42.896;20.874;2023-04-12T19:21:08;13.05;;;6.13;;
25381;SDS011;16307;42.896;20.874;2023-04-12T19:23:55;11.32;;;4.88;;
25381;SDS011;16307;42.896;20.874;2023-04-12T19:26:59;10.98;;;4.20;;
25381;SDS011;16307;42.896;20.874;2023-04-12T19:30:06;13.18;;;5.70;;
25381;SDS011;16307;42.896;20.874;2023-04-12T19:33:01;14.05;;;5.22;;
25381;SDS011;16307;42.896;20.874;2023-04-12T19:39:18;14.65;;;5.53;;
25381;SDS011;16307;42.896;20.874;2023-04-12T19:42:16;17.63;;;7.65;;
25381;SDS011;16307;42.896;20.874;2023-04-12T19:45:02;15.52;;;7.13;;
25381;SDS011;16307;42.896;20.874;2023-04-12T19:47:49;15.23;;;6.50;;
25381;SDS011;16307;42.896;20.874;2023-04-12T19:50:35;12.45;;;6.25;;
25381;SDS011;16307;42.896;20.874;2023-04-12T19:53:22;12.63;;;5.65;;
25381;SDS011;16307;42.896;20.874;2023-04-12T19:56:09;18.08;;;6.00;;
25381;SDS011;16307;42.896;20.874;2023-04-12T19:58:57;17.50;;;5.97;;
25381;SDS011;16307;42.896;20.874;2023-04-12T20:01:45;11.77;;;5.53;;
25381;SDS011;16307;42.896;20.874;2023-04-12T20:04:34;17.02;;;6.35;;
25381;SDS011;16307;42.896;20.874;2023-04-12T20:07:21;11.50;;;5.28;;
25381;SDS011;16307;42.896;20.874;2023-04-12T20:13:47;27.77;;;12.90;;
25381;SDS011;16307;42.896;20.874;2023-04-12T20:16:45;28.10;;;12.05;;
25381;SDS011;16307;42.896;20.874;2023-04-12T20:19:42;28.00;;;12.88;;
25381;SDS011;16307;42.896;20.874;2023-04-12T20:22:38;23.25;;;11.02;;
25381;SDS011;16307;42.896;20.874;2023-04-12T20:25:43;22.33;;;9.23;;
25381;SDS011;16307;42.896;20.874;2023-04-12T20:28:41;20.65;;;7.75;;
25381;SDS011;16307;42.896;20.874;2023-04-12T20:31:28;26.13;;;7.82;;
25381;SDS011;16307;42.896;20.874;2023-04-12T20:34:15;35.38;;;9.38;;
25381;SDS011;16307;42.896;20.874;2023-04-12T20:37:02;15.38;;;7.10;;
25381;SDS011;16307;42.896;20.874;2023-04-12T20:39:48;28.40;;;8.00;;
25381;SDS011;16307;42.896;20.874;2023-04-12T20:42:36;16.95;;;7.00;;
25381;SDS011;16307;42.896;20.874;2023-04-12T20:45:22;15.65;;;6.90;;
25381;SDS011;16307;42.896;20.874;2023-04-12T20:48:10;14.73;;;6.47;;
25381;SDS011;16307;42.896;20.874;2023-04-12T20:50:56;15.20;;;7.18;;
25381;SDS011;16307;42.896;20.874;2023-04-12T20:53:43;11.55;;;6.03;;
25381;SDS011;16307;42.896;20.874;2023-04-12T20:56:31;14.18;;;6.80;;
25381;SDS011;16307;42.896;20.874;2023-04-12T20:59:18;17.60;;;7.85;;
25381;SDS011;16307;42.896;20.874;2023-04-12T21:02:08;13.65;;;7.35;;
25381;SDS011;16307;42.896;20.874;2023-04-12T21:05:13;21.17;;;9.73;;
25381;SDS011;16307;42.896;20.874;2023-04-12T21:08:04;23.77;;;9.40;;
25381;SDS011;16307;42.896;20.874;2023-04-12T21:10:52;28.30;;;9.95;;
25381;SDS011;16307;42.896;20.874;2023-04-12T21:13:38;23.08;;;9.05;;
25381;SDS011;16307;42.896;20.874;2023-04-12T21:16:25;17.80;;;6.88;;
25381;SDS011;16307;42.896;20.874;2023-04-12T21:19:12;15.32;;;6.30;;
25381;SDS011;16307;42.896;20.874;2023-04-12T21:22:01;15.85;;;6.63;;
25381;SDS011;16307;42.896;20.874;2023-04-12T21:24:48;14.80;;;6.00;;
25381;SDS011;16307;42.896;20.874;2023-04-12T21:27:35;10.63;;;5.13;;
25381;SDS011;16307;42.896;20.874;2023-04-12T21:30:22;9.88;;;4.25;;
25381;SDS011;16307;42.896;20.874;2023-04-12T21:33:08;8.65;;;4.35;;
25381;SDS011;16307;42.896;20.874;2023-04-12T21:35:59;20.88;;;8.15;;
25381;SDS011;16307;42.896;20.874;2023-04-12T21:38:46;26.63;;;12.65;;
25381;SDS011;16307;42.896;20.874;2023-04-12T21:41:32;30.92;;;13.80;;
25381;SDS011;16307;42.896;20.874;2023-04-12T21:44:18;21.88;;;10.13;;
25381;SDS011;16307;42.896;20.874;2023-04-12T21:47:07;11.32;;;6.03;;
25381;SDS011;16307;42.896;20.874;2023-04-12T21:49:53;13.55;;;5.65;;
25381;SDS011;16307;42.896;20.874;2023-04-12T21:52:39;12.25;;;4.93;;
25381;SDS011;16307;42.896;20.874;2023-04-12T21:55:27;15.13;;;5.32;;
25381;SDS011;16307;42.896;20.874;2023-04-12T21:58:13;10.30;;;4.53;;
25381;SDS011;16307;42.896;20.874;2023-04-12T22:01:03;18.63;;;4.80;;
25381;SDS011;16307;42.896;20.874;2023-04-12T22:03:50;11.40;;;4.60;;
25381;SDS011;16307;42.896;20.874;2023-04-12T22:06:37;11.52;;;4.50;;
25381;SDS011;16307;42.896;20.874;2023-04-12T22:09:23;20.20;;;7.40;;
25381;SDS011;16307;42.896;20.874;2023-04-12T22:12:10;12.00;;;5.22;;
25381;SDS011;16307;42.896;20.874;2023-04-12T22:14:56;11.05;;;4.45;;
25381;SDS011;16307;42.896;20.874;2023-04-12T22:17:43;11.85;;;4.30;;
25381;SDS011;16307;42.896;20.874;2023-04-12T22:20:30;18.88;;;8.55;;
25381;SDS011;16307;42.896;20.874;2023-04-12T22:23:17;15.13;;;5.95;;
25381;SDS011;16307;42.896;20.874;2023-04-12T22:26:04;15.73;;;6.20;;
25381;SDS011;16307;42.896;20.874;2023-04-12T22:28:53;11.13;;;6.28;;
25381;SDS011;16307;42.896;20.874;2023-04-12T22:31:39;9.27;;;4.85;;
25381;SDS011;16307;42.896;20.874;2023-04-12T22:34:28;12.95;;;6.25;;
25381;SDS011;16307;42.896;20.874;2023-04-12T22:37:14;11.82;;;5.90;;
25381;SDS011;16307;42.896;20.874;2023-04-12T22:40:00;13.43;;;6.05;;
25381;SDS011;16307;42.896;20.874;2023-04-12T22:42:47;13.65;;;5.45;;
25381;SDS011;16307;42.896;20.874;2023-04-12T22:45:33;12.65;;;5.30;;
25381;SDS011;16307;42.896;20.874;2023-04-12T22:48:20;10.13;;;5.38;;
25381;SDS011;16307;42.896;20.874;2023-04-12T22:51:09;14.07;;;5.40;;
25381;SDS011;16307;42.896;20.874;2023-04-12T22:53:57;11.80;;;6.05;;
25381;SDS011;16307;42.896;20.874;2023-04-12T22:56:43;15.75;;;5.60;;
25381;SDS011;16307;42.896;20.874;2023-04-12T22:59:30;10.95;;;5.65;;
25381;SDS011;16307;42.896;20.874;2023-04-12T23:02:16;13.88;;;5.88;;
25381;SDS011;16307;42.896;20.874;2023-04-12T23:05:02;15.13;;;5.05;;
25381;SDS011;16307;42.896;20.874;2023-04-12T23:07:49;11.20;;;5.20;;
25381;SDS011;16307;42.896;20.874;2023-04-12T23:10:36;14.40;;;5.50;;
25381;SDS011;16307;42.896;20.874;2023-04-12T23:13:23;15.43;;;5.57;;
25381;SDS011;16307;42.896;20.874;2023-04-12T23:16:09;13.18;;;5.93;;
25381;SDS011;16307;42.896;20.874;2023-04-12T23:18:56;16.90;;;5.75;;
25381;SDS011;16307;42.896;20.874;2023-04-12T23:21:43;15.70;;;5.63;;
25381;SDS011;16307;42.896;20.874;2023-04-12T23:24:29;12.07;;;5.53;;
25381;SDS011;16307;42.896;20.874;2023-04-12T23:27:15;12.98;;;5.78;;
25381;SDS011;16307;42.896;20.874;2023-04-12T23:30:01;11.48;;;5.60;;
25381;SDS011;16307;42.896;20.874;2023-04-12T23:32:48;14.32;;;5.70;;
25381;SDS011;16307;42.896;20.874;2023-04-12T23:35:34;15.05;;;6.47;;
25381;SDS011;16307;42.896;20.874;2023-04-12T23:38:23;13.45;;;6.38;;
25381;SDS011;16307;42.896;20.874;2023-04-12T23:41:17;12.13;;;5.65;;
25381;SDS011;16307;42.896;20.874;2023-04-12T23:44:04;12.90;;;5.68;;
25381;SDS011;16307;42.896;20.874;2023-04-12T23:46:51;12.93;;;5.40;;
25381;SDS011;16307;42.896;20.874;2023-04-12T23:49:37;12.95;;;5.07;;
25381;SDS011;16307;42.896;20.874;2023-04-12T23:52:23;10.27;;;5.25;;
25381;SDS011;16307;42.896;20.874;2023-04-12T23:55:09;8.90;;;5.03;;
25381;SDS011;16307;42.896;20.874;2023-04-12T23:57:55;10.50;;;4.65;;
